createdAt,value
2018-10-07T00:04:10.095Z,98.20
2018-10-07T00:09:14.916Z,98.70
2018-10-07T00:14:19.008Z,99.50
2018-10-07T00:19:23.190Z,99.30
2018-10-07T00:24:27.278Z,99.10
2018-10-07T00:29:31.854Z,99.20
2018-10-07T00:34:36.096Z,99.30
2018-10-07T00:39:40.615Z,99.40
2018-10-07T00:44:44.733Z,99.70
2018-10-07T00:49:49.146Z,99.70
2018-10-07T00:54:53.278Z,99.50
2018-10-07T00:59:57.716Z,98.70
2018-10-07T01:05:02.374Z,99.10
2018-10-07T01:10:06.870Z,99.10
2018-10-07T01:15:10.953Z,99.50
2018-10-07T01:20:15.663Z,99.90
2018-10-07T01:25:20.121Z,99.90
2018-10-07T01:35:59.234Z,99.90
2018-10-07T01:41:03.864Z,99.30
2018-10-07T01:46:09.192Z,99.80
2018-10-07T01:51:13.269Z,99.90
2018-10-07T01:56:17.665Z,99.90
2018-10-07T02:01:22.035Z,99.90
2018-10-07T02:06:26.764Z,98.70
2018-10-07T02:11:31.012Z,99.00
2018-10-07T02:16:35.326Z,99.60
2018-10-07T02:21:39.416Z,99.90
2018-10-07T02:26:44.068Z,99.90
2018-10-07T02:31:48.439Z,99.90
2018-10-07T02:36:53.448Z,99.90
2018-10-07T02:41:57.675Z,99.90
2018-10-07T02:47:01.831Z,99.90
2018-10-07T02:52:06.853Z,99.90
2018-10-07T02:57:11.424Z,99.90
2018-10-07T03:02:15.846Z,99.90
2018-10-07T03:07:20.135Z,99.90
2018-10-07T03:12:24.211Z,99.90
2018-10-07T03:17:29.243Z,99.90
2018-10-07T03:22:33.837Z,99.90
2018-10-07T03:27:38.608Z,99.90
2018-10-07T03:32:42.657Z,99.90
2018-10-07T03:37:46.762Z,99.90
2018-10-07T03:42:51.675Z,99.90
2018-10-07T03:47:56.057Z,99.90
2018-10-07T03:53:00.137Z,99.90
2018-10-07T03:58:04.711Z,99.90
2018-10-07T04:03:09.430Z,99.90
2018-10-07T04:08:13.923Z,99.90
2018-10-07T04:13:18.258Z,99.80
2018-10-07T04:18:22.355Z,99.40
2018-10-07T04:23:26.939Z,99.30
2018-10-07T04:28:31.520Z,99.60
2018-10-07T04:33:36.115Z,99.50
2018-10-07T04:38:41.077Z,99.20
2018-10-07T04:43:45.157Z,99.10
2018-10-07T04:48:49.247Z,98.90
2018-10-07T04:53:53.957Z,99.10
2018-10-07T04:58:58.621Z,99.50
2018-10-07T05:04:03.141Z,99.90
2018-10-07T05:09:09.342Z,99.90
2018-10-07T05:14:14.178Z,99.90
2018-10-07T05:19:18.847Z,99.90
2018-10-07T05:24:22.913Z,99.80
2018-10-07T05:29:26.999Z,99.90
2018-10-07T05:34:31.702Z,99.40
2018-10-07T05:39:36.301Z,99.30
2018-10-07T05:44:40.653Z,99.90
2018-10-07T05:49:44.679Z,99.90
2018-10-07T05:54:49.063Z,99.90
2018-10-07T05:59:53.604Z,99.90
2018-10-07T06:04:59.233Z,99.90
2018-10-07T06:10:03.364Z,99.90
2018-10-07T06:15:44.852Z,99.80
2018-10-07T06:20:49.018Z,99.80
2018-10-07T06:25:53.139Z,99.90
2018-10-07T06:30:58.008Z,96.30
2018-10-07T06:36:02.424Z,93.10
2018-10-07T06:41:06.909Z,91.90
2018-10-07T06:46:11.054Z,93.30
2018-10-07T06:51:15.178Z,94.10
2018-10-07T06:56:19.693Z,94.40
2018-10-07T07:01:25.688Z,93.60
2018-10-07T07:06:30.001Z,90.30
2018-10-07T07:11:35.244Z,75.70
2018-10-07T07:16:40.568Z,59.90
2018-10-07T07:21:45.216Z,52.20
2018-10-07T07:26:49.367Z,55.30
2018-10-07T07:31:53.636Z,56.00
2018-10-07T07:36:58.482Z,53.00
2018-10-07T07:42:03.121Z,51.00
2018-10-07T07:47:07.543Z,48.70
2018-10-07T07:52:12.195Z,48.10
2018-10-07T07:57:16.258Z,44.60
2018-10-07T08:02:21.634Z,43.10
2018-10-07T08:07:26.093Z,44.20
2018-10-07T08:12:30.508Z,44.50
2018-10-07T08:17:34.717Z,47.20
2018-10-07T08:22:39.161Z,45.70
2018-10-07T08:27:43.898Z,45.60
2018-10-07T08:32:48.864Z,47.60
2018-10-07T08:37:53.357Z,47.50
2018-10-07T08:42:57.928Z,44.10
2018-10-07T08:48:02.360Z,44.60
2018-10-07T08:53:07.487Z,46.20
2018-10-07T08:58:11.900Z,47.40
2018-10-07T09:03:16.069Z,47.70
2018-10-07T09:08:20.595Z,52.90
2018-10-07T09:13:25.055Z,58.10
2018-10-07T09:18:29.685Z,57.90
2018-10-07T09:23:33.959Z,50.30
2018-10-07T09:28:38.163Z,45.60
2018-10-07T09:33:42.679Z,43.20
2018-10-07T09:38:47.117Z,42.50
2018-10-07T09:43:51.806Z,41.60
2018-10-07T09:48:56.050Z,42.60
2018-10-07T09:54:00.180Z,44.50
2018-10-07T09:59:04.416Z,46.80
2018-10-07T10:04:09.498Z,50.30
2018-10-07T10:09:14.074Z,50.30
2018-10-07T10:14:18.637Z,51.50
2018-10-07T10:19:26.529Z,48.90
2018-10-07T10:24:36.957Z,51.10
2018-10-07T10:29:45.209Z,53.20
2018-10-07T10:34:57.181Z,54.30
2018-10-07T10:40:02.911Z,56.40
2018-10-07T10:45:07.679Z,57.00
2018-10-07T10:50:23.068Z,54.20
2018-10-07T10:55:35.766Z,55.40
2018-10-07T11:00:48.403Z,55.20
2018-10-07T11:06:04.113Z,55.20
2018-10-07T11:11:21.770Z,55.50
2018-10-07T11:16:42.080Z,57.10
2018-10-07T11:22:09.031Z,57.60
2018-10-07T11:27:53.818Z,57.10
2018-10-07T11:33:12.192Z,56.70
2018-10-07T11:38:22.975Z,56.90
2018-10-07T11:44:03.521Z,57.40
2018-10-07T11:49:12.947Z,56.60
2018-10-07T11:54:21.584Z,57.20
2018-10-07T11:59:25.699Z,55.80
2018-10-07T12:04:29.789Z,55.00
2018-10-07T12:09:34.470Z,56.30
2018-10-07T12:14:38.980Z,55.20
2018-10-07T12:19:43.916Z,55.90
2018-10-07T12:24:48.209Z,55.80
2018-10-07T12:29:52.348Z,55.70
2018-10-07T12:34:56.956Z,56.40
2018-10-07T12:40:01.549Z,55.50
2018-10-07T12:45:05.984Z,55.30
2018-10-07T12:50:10.121Z,55.60
2018-10-07T12:55:14.203Z,54.80
2018-10-07T13:00:18.986Z,54.90
2018-10-07T13:05:23.696Z,55.40
2018-10-07T13:10:28.107Z,54.70
2018-10-07T13:15:32.698Z,53.70
2018-10-07T13:20:36.879Z,54.80
2018-10-07T13:25:41.621Z,54.60
2018-10-07T13:30:46.534Z,53.80
2018-10-07T13:35:50.918Z,54.00
2018-10-07T13:40:55.089Z,53.70
2018-10-07T13:46:00.340Z,54.00
2018-10-07T13:51:04.451Z,55.00
2018-10-07T13:56:08.864Z,54.50
2018-10-07T14:01:12.974Z,54.70
2018-10-07T14:06:17.761Z,55.20
2018-10-07T14:11:22.502Z,55.50
2018-10-07T14:16:27.191Z,55.60
2018-10-07T14:21:31.301Z,56.10
2018-10-07T14:26:35.445Z,56.00
2018-10-07T14:31:39.558Z,56.10
2018-10-07T14:36:45.102Z,56.50
2018-10-07T14:41:50.145Z,56.00
2018-10-07T14:46:54.244Z,56.50
2018-10-07T14:51:58.922Z,57.50
2018-10-07T14:57:05.261Z,56.60
2018-10-07T15:02:09.369Z,57.20
2018-10-07T15:07:13.552Z,57.30
2018-10-07T15:12:17.767Z,57.90
2018-10-07T15:17:22.604Z,58.40
2018-10-07T15:22:27.018Z,58.60
2018-10-07T15:27:31.511Z,59.30
2018-10-07T15:32:35.750Z,59.20
2018-10-07T15:37:42.524Z,58.70
2018-10-07T15:42:46.816Z,58.80
2018-10-07T15:47:51.123Z,60.50
2018-10-07T15:52:55.590Z,61.20
2018-10-07T15:58:02.508Z,62.00
2018-10-07T16:03:07.240Z,62.60
2018-10-07T16:08:11.864Z,64.20
2018-10-07T16:13:16.615Z,65.10
2018-10-07T16:18:21.145Z,65.80
2018-10-07T16:23:25.823Z,67.30
2018-10-07T16:28:30.160Z,68.10
2018-10-07T16:33:34.479Z,69.40
2018-10-07T16:38:39.421Z,70.70
2018-10-07T16:43:43.575Z,71.20
2018-10-07T16:48:48.032Z,72.80
2018-10-07T16:53:52.638Z,74.10
2018-10-07T16:58:57.200Z,75.00
2018-10-07T17:04:01.470Z,76.00
2018-10-07T17:09:07.472Z,76.10
2018-10-07T17:14:13.302Z,77.10
2018-10-07T17:19:18.485Z,78.20
2018-10-07T17:24:22.788Z,79.10
2018-10-07T17:29:27.168Z,79.90
2018-10-07T17:34:31.560Z,80.70
2018-10-07T17:39:35.941Z,81.30
2018-10-07T17:44:40.163Z,81.80
2018-10-07T17:49:44.819Z,82.30
2018-10-07T17:54:50.386Z,83.00
2018-10-07T17:59:55.721Z,83.80
2018-10-07T18:05:00.407Z,84.40
2018-10-07T18:10:05.061Z,85.30
2018-10-07T18:15:09.625Z,85.80
2018-10-07T18:20:14.184Z,86.50
2018-10-07T18:25:18.491Z,87.30
2018-10-07T18:30:24.731Z,87.90
2018-10-07T18:35:29.303Z,88.30
2018-10-07T18:40:33.532Z,89.20
2018-10-07T18:45:37.954Z,89.00
2018-10-07T18:50:42.775Z,89.20
2018-10-07T18:55:47.107Z,89.50
2018-10-07T19:00:51.863Z,90.30
2018-10-07T19:05:56.354Z,91.00
2018-10-07T19:11:00.881Z,91.20
2018-10-07T19:16:05.092Z,91.60
2018-10-07T19:21:09.481Z,91.50
2018-10-07T19:26:14.727Z,90.10
2018-10-07T19:31:20.943Z,92.10
2018-10-07T19:36:25.586Z,93.30
2018-10-07T19:41:30.537Z,93.60
2018-10-07T19:46:35.907Z,93.90
2018-10-07T19:51:40.909Z,94.50
2018-10-07T19:56:46.030Z,94.00
2018-10-07T20:01:51.281Z,94.20
2018-10-07T20:06:56.806Z,94.30
2018-10-07T20:12:01.632Z,94.70
2018-10-07T20:17:06.385Z,94.80
2018-10-07T20:22:13.365Z,96.40
2018-10-07T20:27:18.577Z,95.20
2018-10-07T20:32:22.673Z,96.30
2018-10-07T20:37:26.732Z,95.70
2018-10-07T20:42:31.248Z,96.90
2018-10-07T20:47:36.118Z,97.40
2018-10-07T20:52:40.544Z,97.00
2018-10-07T20:57:44.747Z,97.30
2018-10-07T21:02:48.943Z,98.00
2018-10-07T21:07:53.521Z,98.40
2018-10-07T21:12:57.972Z,98.60
2018-10-07T21:18:03.236Z,99.00
2018-10-07T21:23:07.443Z,98.40
2018-10-07T21:28:12.014Z,98.60
2018-10-07T21:33:17.630Z,98.90
2018-10-07T21:38:21.796Z,98.20
2018-10-07T21:43:25.918Z,98.30
2018-10-07T21:48:30.014Z,98.40
2018-10-07T21:53:35.092Z,98.60
2018-10-07T21:58:39.595Z,97.50
2018-10-07T22:03:43.736Z,97.00
2018-10-07T22:08:47.840Z,96.90
2018-10-07T22:13:52.096Z,97.20
2018-10-07T22:18:56.550Z,97.80
2018-10-07T22:24:01.427Z,99.90
2018-10-07T22:29:05.517Z,99.90
2018-10-07T22:34:10.354Z,99.40
2018-10-07T22:39:14.657Z,99.10
2018-10-07T22:44:19.504Z,99.00
2018-10-07T22:49:23.666Z,99.50
2018-10-07T22:54:27.779Z,99.10
2018-10-07T22:59:33.276Z,99.90
2018-10-07T23:04:37.978Z,99.90
2018-10-07T23:09:42.160Z,99.90
2018-10-07T23:14:46.275Z,99.10
2018-10-07T23:19:50.484Z,98.80
2018-10-07T23:24:56.325Z,98.70
2018-10-07T23:30:01.541Z,99.10
2018-10-07T23:35:05.733Z,99.40
2018-10-07T23:40:10.942Z,99.00
2018-10-07T23:45:15.207Z,99.00
2018-10-07T23:50:19.781Z,99.00
2018-10-07T23:55:23.885Z,99.00
